Flugplatz Hildesheim

Für EDVM sind keine METAR/TAF Berichte vorhanden.
Es werden die Flugwettermeldungen vom Flugplatz Hannover in 35 km Entfernung angezeigt.

Bericht für EDDV

vom 31.05. um 10:20 UTC

Wind 7 kt aus 50°

Sichtweite 10 km oder mehr

aufgebrochene Bewölkung in 4700 ft

Temperatur 18.0°C

Taupunkt 7.0°C

Luftfeuchtigkeit 49%

Luftdruck 1024 hPa

keine wesentliche Wetteränderung innerhalb den nächsten 2 Stunden zu erwarten

EDDV 311020Z 05007KT 360V090 9999 BKN047 18/07 Q1024 NOSIG

Prognose für EDDV

vom 31.05. um 05:00 UTC

Zwischen 06:00 UTC und 07:00 UTC

Wind 5 kt aus 50°

Sichtweite 10 km oder mehr

keine signifikanten Wettererscheinungen

keine Wolken


Zwischen 07:00 und 10:00 UTC übergehend zu

Wind 10 kt aus 50°

Sichtweite 10 km oder mehr

keine signifikanten Wettererscheinungen

keine Wolken


Zwischen 20:00 und 23:00 UTC übergehend zu

Wind 5 kt aus 50°

Sichtweite 10 km oder mehr

keine signifikanten Wettererscheinungen

keine Wolken

TAF EDDV 310500Z 3106/0106 05005KT CAVOK BECMG 3107/3110 05010KT BECMG 3120/3123 05005KT
Impressum